Impacts METAR Board
IDs:

KMSY - New Orleans/Armstron, LA, US

Updated at: 2100 UTC 22 Sep 2020
Potential Impact None Slight Moderate High
Time 22/09Z 22/10Z 22/11Z 22/12Z 22/13Z 22/14Z 22/15Z 22/16Z 22/17Z 22/18Z 22/19Z 22/20Z 22/21Z
Temp71 71 72 73 73 74 73 73 75 76 75 77 78
Dewpt65 65 66 67 68 68 68 68 68 69 69 71 71
Altim30.03 30.02 30.03 30.03 30.04 30.04 30.06 30.06 30.05 30.03 30.01 29.99 29.98
VIS10 10 10 10 8 8 7 8 10 10 9 8 9
CIG30 33 22 13 10 10 11 11 11 10 12 11 12
CoverOVCOVCOVCOVCOVCOVCOVCOVCOVCOVCOVCOVCOVC
FltCatMVFRVFRMVFRMVFRMVFRMVFRMVFRMVFRMVFRMVFRMVFRMVFRMVFR
WX--------------------------
WDir6080808080908080908010010090
WSpd7 14 11 11 10 16 12 15 14 10 17 14 15
WGst17 -- 18 -- -- 20 -- 21 -- -- -- -- 21
Raw hourly METARs
KMSY 220853Z 06007G17KT 10SM BKN030 OVC039 22/18 A3003 RMK AO2 SLP171 T02170183 56014
KMSY 220953Z 08014KT 10SM BKN033 OVC120 22/18 A3002 RMK AO2 SLP168 T02170183
KMSY 221053Z 08011G18KT 10SM BKN022 BKN055 OVC120 22/19 A3003 RMK AO2 SLP173 T02220189
KMSY 221153Z 08011KT 10SM OVC013 23/19 A3003 RMK AO2 SLP173 70011 T02280194 10228 20211 53003
KMSY 221253Z 08010KT 8SM OVC010 23/20 A3004 RMK AO2 SLP176 T02280200
KMSY 221353Z 09016G20KT 8SM OVC010 23/20 A3004 RMK AO2 SLP175 T02330200
KMSY 221453Z 08012KT 7SM OVC011 23/20 A3006 RMK AO2 RAB19E29 SLP183 P0000 60000 T02280200 53010
KMSY 221553Z 08015G21KT 8SM OVC011 23/20 A3006 RMK AO2 SLP183 T02280200
KMSY 221653Z 09014KT 10SM BKN011 OVC036 24/20 A3005 RMK AO2 SLP179 T02390200
KMSY 221753Z 08010KT 10SM BKN010 OVC035 24/21 A3003 RMK AO2 SLP171 60000 T02440206 10244 20228 58012
KMSY 221853Z 10017KT 9SM BKN012 OVC031 24/21 A3001 RMK AO2 SLP166 T02390206
KMSY 221953Z 10014KT 8SM BKN011 OVC018 25/22 A2999 RMK AO2 RAB25E34 SLP158 P0000 T02500217
KMSY 222053Z 09015G21KT 9SM BKN012 BKN017 BKN033 OVC150 26/22 A2998 RMK AO2 SLP154 60000 T02560217 56017



Page loaded:  21:58 UTC  |   02:58 PM Pacific  |   03:58 PM Mountain  |   04:58 PM Central  |   05:58 PM Eastern

 

ADVISORIES

FORECASTS

FORECASTS

OBSERVATIONS

USER TOOLS

ABOUT US